Time;durP1;ratioP1;P1;durP2;ratioP2;P2;SDS_P1;SDS_P2;PMS_P1;PMS_P2;Temp;Humidity;BMP_temperature;BMP_pressure;BME280_temperature;BME280_humidity;BME280_pressure;Samples;Min_cycle;Max_cycle;Signal;HPM_P1;HPM_P2
2023/01/12 00:01:13;;;;;;;4.25;0.95;;;;;;;;;;4920330;29;20223;-66
2023/01/12 00:03:38;;;;;;;3.63;1.10;;;;;;;;;;4922378;29;20211;-66
2023/01/12 00:06:06;;;;;;;3.08;0.82;;;;;;;;;;4928132;29;20307;-66
2023/01/12 00:08:32;;;;;;;4.30;0.90;;;;;;;;;;4930039;28;20662;-67
2023/01/12 00:10:58;;;;;;;2.88;0.95;;;;;;;;;;4927930;29;20577;-67
2023/01/12 00:13:23;;;;;;;4.70;0.90;;;;;;;;;;4927762;29;20643;-67
2023/01/12 00:18:32;;;;;;;3.63;1.00;;;;;;;;;;4945436;28;20705;-67
2023/01/12 00:20:57;;;;;;;3.10;1.10;;;;;;;;;;4932304;28;20227;-67
2023/01/12 00:23:24;;;;;;;3.53;0.88;;;;;;;;;;4919742;29;20219;-66
2023/01/12 00:25:50;;;;;;;5.07;1.30;;;;;;;;;;4920771;29;20235;-67
2023/01/12 00:28:16;;;;;;;2.85;1.13;;;;;;;;;;4945632;28;20245;-66
2023/01/12 00:30:41;;;;;;;3.40;0.95;;;;;;;;;;4947035;28;20737;-66
2023/01/12 00:33:07;;;;;;;3.55;1.00;;;;;;;;;;4946022;28;20313;-66
2023/01/12 00:35:34;;;;;;;4.78;1.20;;;;;;;;;;4946610;28;20230;-66
2023/01/12 00:37:59;;;;;;;6.38;1.73;;;;;;;;;;4946670;28;20309;-67
2023/01/12 00:40:24;;;;;;;4.88;1.58;;;;;;;;;;4945463;28;20361;-66
2023/01/12 00:45:33;;;;;;;5.37;1.60;;;;;;;;;;4937938;28;20233;-67
2023/01/12 00:47:59;;;;;;;4.45;1.65;;;;;;;;;;4938570;28;20219;-66
2023/01/12 00:50:24;;;;;;;5.03;1.67;;;;;;;;;;4944172;28;20309;-66
2023/01/12 00:52:49;;;;;;;6.82;1.92;;;;;;;;;;4928632;29;20305;-66
2023/01/12 00:55:14;;;;;;;6.28;1.75;;;;;;;;;;4945973;28;20210;-66
2023/01/12 00:57:40;;;;;;;4.65;1.60;;;;;;;;;;4930954;29;20222;-66
2023/01/12 01:00:05;;;;;;;8.77;2.28;;;;;;;;;;4952566;28;20667;-66
2023/01/12 01:02:31;;;;;;;7.88;2.22;;;;;;;;;;4955977;28;20264;-66
2023/01/12 01:04:56;;;;;;;6.03;1.88;;;;;;;;;;4938940;29;20230;-67
2023/01/12 01:07:21;;;;;;;7.53;2.13;;;;;;;;;;4954672;28;20237;-66
2023/01/12 01:09:47;;;;;;;6.47;2.20;;;;;;;;;;4957848;28;20210;-67
2023/01/12 01:12:12;;;;;;;8.85;2.47;;;;;;;;;;4955622;28;20213;-67
2023/01/12 01:14:37;;;;;;;9.88;2.55;;;;;;;;;;4955432;28;20220;-68
2023/01/12 01:17:02;;;;;;;6.82;2.17;;;;;;;;;;4955307;28;20244;-67
2023/01/12 01:19:28;;;;;;;7.38;2.30;;;;;;;;;;4955644;28;20299;-67
2023/01/12 01:21:53;;;;;;;6.63;2.30;;;;;;;;;;4935018;29;20701;-67
2023/01/12 01:24:18;;;;;;;6.57;2.25;;;;;;;;;;4936074;29;20215;-67
2023/01/12 01:26:44;;;;;;;9.45;2.50;;;;;;;;;;4936748;29;20235;-67
2023/01/12 01:29:09;;;;;;;10.90;2.97;;;;;;;;;;4935447;29;20211;-67
2023/01/12 01:31:34;;;;;;;8.65;3.10;;;;;;;;;;4936387;29;20623;-68
2023/01/12 01:33:59;;;;;;;8.68;2.70;;;;;;;;;;4936430;29;20302;-68
2023/01/12 01:36:25;;;;;;;9.82;2.65;;;;;;;;;;4927707;29;20376;-67
2023/01/12 01:38:50;;;;;;;8.73;2.58;;;;;;;;;;4926950;29;20215;-67
2023/01/12 01:41:18;;;;;;;6.63;2.45;;;;;;;;;;4923772;29;20683;-67
2023/01/12 01:43:52;;;;;;;9.63;2.92;;;;;;;;;;4937577;28;20479;-67
2023/01/12 01:46:22;;;;;;;8.35;2.60;;;;;;;;;;4937346;28;20248;-67
2023/01/12 01:48:48;;;;;;;10.23;3.08;;;;;;;;;;4940399;28;20584;-67
2023/01/12 01:51:13;;;;;;;7.72;2.10;;;;;;;;;;4937938;28;20208;-67
2023/01/12 01:53:39;;;;;;;9.82;2.58;;;;;;;;;;4926902;29;20686;-67
2023/01/12 01:56:06;;;;;;;9.27;2.42;;;;;;;;;;4926321;29;20278;-67
2023/01/12 01:58:33;;;;;;;9.95;2.70;;;;;;;;;;4924964;29;20226;-68
2023/01/12 02:00:59;;;;;;;8.43;2.95;;;;;;;;;;4931820;28;20583;-69
2023/01/12 02:03:24;;;;;;;7.33;2.10;;;;;;;;;;4924508;29;20364;-69
2023/01/12 02:05:49;;;;;;;8.23;2.78;;;;;;;;;;4917486;29;20223;-69
2023/01/12 02:08:17;;;;;;;7.80;2.17;;;;;;;;;;4917404;28;20590;-68
2023/01/12 02:10:42;;;;;;;8.32;2.30;;;;;;;;;;4917993;28;20624;-68
2023/01/12 02:16:19;;;;;;;8.27;2.05;;;;;;;;;;4925981;29;20229;-68
2023/01/12 02:19:03;;;;;;;7.23;2.23;;;;;;;;;;4943223;28;20549;-68
2023/01/12 02:21:37;;;;;;;6.53;2.00;;;;;;;;;;4933662;28;20222;-68
2023/01/12 02:24:05;;;;;;;6.43;1.98;;;;;;;;;;4943693;28;20228;-67
2023/01/12 02:26:43;;;;;;;5.45;2.10;;;;;;;;;;4942108;28;20266;-68
2023/01/12 02:29:17;;;;;;;8.07;2.03;;;;;;;;;;4936596;28;20218;-68
2023/01/12 02:31:49;;;;;;;7.80;1.98;;;;;;;;;;4935297;28;20234;-68
2023/01/12 02:34:27;;;;;;;6.97;1.83;;;;;;;;;;4940731;28;20221;-68
2023/01/12 02:36:52;;;;;;;7.35;1.90;;;;;;;;;;4944599;28;20246;-69
2023/01/12 02:39:19;;;;;;;7.32;1.67;;;;;;;;;;4944254;28;20233;-68
2023/01/12 02:44:35;;;;;;;7.60;1.65;;;;;;;;;;4943639;28;20256;-67
2023/01/12 02:47:00;;;;;;;5.40;1.40;;;;;;;;;;4943092;28;20230;-66
2023/01/12 02:49:26;;;;;;;5.28;1.52;;;;;;;;;;4924172;29;20222;-68
2023/01/12 02:51:56;;;;;;;6.15;1.63;;;;;;;;;;4923290;28;20218;-67
2023/01/12 02:54:22;;;;;;;6.82;1.50;;;;;;;;;;4917444;29;20215;-68
2023/01/12 02:56:48;;;;;;;4.90;1.50;;;;;;;;;;4920765;29;20230;-68
2023/01/12 02:59:16;;;;;;;6.10;1.80;;;;;;;;;;4942049;28;20229;-67
2023/01/12 03:01:42;;;;;;;6.50;1.63;;;;;;;;;;4925482;29;20251;-67
2023/01/12 03:04:07;;;;;;;7.32;1.70;;;;;;;;;;4930834;29;20235;-69
2023/01/12 03:06:36;;;;;;;5.18;1.48;;;;;;;;;;4952621;28;20233;-68
2023/01/12 03:09:01;;;;;;;5.78;2.17;;;;;;;;;;4938317;28;20576;-67
2023/01/12 03:11:26;;;;;;;4.60;1.73;;;;;;;;;;4954377;28;20222;-67
2023/01/12 03:13:54;;;;;;;6.03;1.63;;;;;;;;;;4936531;29;20215;-67
2023/01/12 03:16:21;;;;;;;3.27;1.17;;;;;;;;;;4953317;28;20273;-67
2023/01/12 03:18:49;;;;;;;5.35;1.60;;;;;;;;;;4954077;28;20623;-67
2023/01/12 03:21:17;;;;;;;7.07;1.92;;;;;;;;;;4943507;28;20223;-67
2023/01/12 03:23:45;;;;;;;7.78;2.05;;;;;;;;;;4933339;29;20226;-67
2023/01/12 03:26:10;;;;;;;9.32;2.25;;;;;;;;;;4933330;29;20225;-67
2023/01/12 03:28:36;;;;;;;7.53;1.77;;;;;;;;;;4933199;29;20215;-67
2023/01/12 03:31:07;;;;;;;8.75;2.05;;;;;;;;;;4934305;29;20247;-67
2023/01/12 03:33:32;;;;;;;6.50;1.80;;;;;;;;;;4937701;29;20314;-68
2023/01/12 03:36:14;;;;;;;7.80;1.80;;;;;;;;;;4938132;29;20637;-67
2023/01/12 03:38:44;;;;;;;7.38;1.98;;;;;;;;;;4938106;29;20242;-67
2023/01/12 03:41:10;;;;;;;7.55;2.33;;;;;;;;;;4939735;28;20206;-67
2023/01/12 03:43:37;;;;;;;6.18;1.65;;;;;;;;;;4940348;29;20709;-68
2023/01/12 03:46:06;;;;;;;9.13;2.60;;;;;;;;;;4940125;28;20223;-68
2023/01/12 03:48:34;;;;;;;8.25;2.40;;;;;;;;;;4940215;29;20309;-68
2023/01/12 03:51:05;;;;;;;8.52;2.20;;;;;;;;;;4957373;28;20214;-67
2023/01/12 03:53:30;;;;;;;5.90;1.67;;;;;;;;;;4939998;29;20647;-67
2023/01/12 03:55:56;;;;;;;8.27;2.40;;;;;;;;;;4939701;29;20218;-68
2023/01/12 03:58:21;;;;;;;6.83;1.70;;;;;;;;;;4956857;28;20294;-67
2023/01/12 04:00:47;;;;;;;6.40;2.05;;;;;;;;;;4957509;28;20215;-68
2023/01/12 04:03:13;;;;;;;5.82;1.75;;;;;;;;;;4953768;28;20218;-67
2023/01/12 04:05:38;;;;;;;6.35;1.70;;;;;;;;;;4949466;28;20566;-67
2023/01/12 04:08:03;;;;;;;5.70;1.58;;;;;;;;;;4956282;29;20207;-68
2023/01/12 04:10:29;;;;;;;6.85;2.08;;;;;;;;;;4956371;29;20210;-68
2023/01/12 04:12:54;;;;;;;5.95;1.70;;;;;;;;;;4957105;28;20305;-69
2023/01/12 04:15:19;;;;;;;8.90;1.95;;;;;;;;;;4956547;28;20232;-69
2023/01/12 04:17:45;;;;;;;5.30;1.50;;;;;;;;;;4956513;28;20218;-69
2023/01/12 04:20:10;;;;;;;6.40;1.63;;;;;;;;;;4956317;28;20273;-68
2023/01/12 04:22:42;;;;;;;4.97;1.25;;;;;;;;;;4957070;28;20242;-68
2023/01/12 04:25:09;;;;;;;5.35;1.27;;;;;;;;;;4939569;28;20219;-67
2023/01/12 04:27:35;;;;;;;6.30;1.88;;;;;;;;;;4956767;28;20588;-68
2023/01/12 04:30:00;;;;;;;5.07;1.40;;;;;;;;;;4956454;28;20206;-68
2023/01/12 04:32:25;;;;;;;5.88;1.50;;;;;;;;;;4956194;28;20219;-68
2023/01/12 04:34:50;;;;;;;4.97;1.27;;;;;;;;;;4956635;28;20230;-68
2023/01/12 04:37:16;;;;;;;5.43;1.52;;;;;;;;;;4955940;28;20254;-68
2023/01/12 04:39:41;;;;;;;5.68;1.30;;;;;;;;;;4956375;28;20226;-68
2023/01/12 04:42:59;;;;;;;6.03;1.50;;;;;;;;;;4955678;28;20214;-68
2023/01/12 04:44:52;;;;;;;5.80;1.63;;;;;;;;;;4955881;28;20227;-67
2023/01/12 04:47:17;;;;;;;6.03;1.40;;;;;;;;;;4955905;28;20302;-67
2023/01/12 04:49:42;;;;;;;4.33;1.33;;;;;;;;;;4956645;28;20210;-68
2023/01/12 04:52:08;;;;;;;3.55;1.38;;;;;;;;;;4941138;28;20734;-67
2023/01/12 04:54:33;;;;;;;6.30;1.50;;;;;;;;;;4937173;29;20216;-68
2023/01/12 04:56:58;;;;;;;6.28;1.58;;;;;;;;;;4937250;29;20266;-68
2023/01/12 04:59:23;;;;;;;4.60;1.30;;;;;;;;;;4936149;29;20214;-67
2023/01/12 05:01:49;;;;;;;5.32;1.45;;;;;;;;;;4936985;29;20247;-67
2023/01/12 05:04:14;;;;;;;6.70;1.75;;;;;;;;;;4936578;29;20221;-67
2023/01/12 05:06:39;;;;;;;5.15;1.30;;;;;;;;;;4946568;28;20234;-67
2023/01/12 05:11:49;;;;;;;4.88;1.30;;;;;;;;;;4942362;28;20234;-68
2023/01/12 05:14:14;;;;;;;6.32;1.80;;;;;;;;;;4927314;28;20207;-68
2023/01/12 05:16:39;;;;;;;5.33;1.50;;;;;;;;;;4927699;29;20322;-68
2023/01/12 05:19:04;;;;;;;4.75;1.40;;;;;;;;;;4926488;29;20679;-69
2023/01/12 05:21:30;;;;;;;5.90;1.70;;;;;;;;;;4919440;29;20207;-69
2023/01/12 05:23:55;;;;;;;5.28;1.20;;;;;;;;;;4919386;29;20219;-70
2023/01/12 05:26:20;;;;;;;4.40;1.23;;;;;;;;;;4919070;29;20249;-69
2023/01/12 05:28:46;;;;;;;4.22;1.05;;;;;;;;;;4926725;29;20267;-69
2023/01/12 05:31:12;;;;;;;2.92;0.80;;;;;;;;;;4926970;29;20613;-68
2023/01/12 05:33:38;;;;;;;6.82;1.30;;;;;;;;;;4926708;29;20271;-68
2023/01/12 05:36:04;;;;;;;5.75;1.20;;;;;;;;;;4926280;29;20246;-67
2023/01/12 05:38:29;;;;;;;4.70;1.27;;;;;;;;;;4945705;28;20218;-67
2023/01/12 05:40:57;;;;;;;2.95;1.02;;;;;;;;;;4940388;28;20671;-67
2023/01/12 05:46:06;;;;;;;4.28;1.05;;;;;;;;;;4927789;28;20242;-68
2023/01/12 05:48:32;;;;;;;3.97;1.00;;;;;;;;;;4918753;29;20226;-68
2023/01/12 05:51:01;;;;;;;3.35;0.98;;;;;;;;;;4925024;29;20758;-68
2023/01/12 05:53:27;;;;;;;3.35;1.10;;;;;;;;;;4943948;28;20272;-67
2023/01/12 05:55:52;;;;;;;5.90;1.63;;;;;;;;;;4944882;28;20695;-67
2023/01/12 05:58:17;;;;;;;2.85;1.17;;;;;;;;;;4945110;28;20258;-66
2023/01/12 06:00:43;;;;;;;4.20;0.90;;;;;;;;;;4945592;28;20773;-67
2023/01/12 06:03:08;;;;;;;5.72;1.42;;;;;;;;;;4944708;28;20217;-67
2023/01/12 06:05:33;;;;;;;3.78;1.08;;;;;;;;;;4939151;28;20241;-67
2023/01/12 06:07:59;;;;;;;5.05;1.02;;;;;;;;;;4918621;29;20221;-67
2023/01/12 06:10:25;;;;;;;3.15;0.80;;;;;;;;;;4917314;29;20257;-67
2023/01/12 06:15:33;;;;;;;7.35;3.70;;;;;;;;;;4930298;28;20656;-69
2023/01/12 06:17:59;;;;;;;4.88;1.30;;;;;;;;;;4926568;29;20683;-69
2023/01/12 06:20:24;;;;;;;6.00;1.85;;;;;;;;;;4933198;28;20213;-69
2023/01/12 06:22:49;;;;;;;6.28;2.28;;;;;;;;;;4944745;28;20215;-70
2023/01/12 06:25:15;;;;;;;4.03;0.98;;;;;;;;;;4944143;28;20586;-69
2023/01/12 06:27:40;;;;;;;4.65;1.20;;;;;;;;;;4941957;28;20218;-69
2023/01/12 06:30:06;;;;;;;8.32;4.40;;;;;;;;;;4936335;28;20297;-69
2023/01/12 06:32:31;;;;;;;4.57;1.30;;;;;;;;;;4933089;28;20673;-69
2023/01/12 06:34:57;;;;;;;3.53;0.90;;;;;;;;;;4920432;29;20235;-69
2023/01/12 06:37:23;;;;;;;3.45;0.98;;;;;;;;;;4924891;29;20225;-69
2023/01/12 06:39:48;;;;;;;4.82;1.10;;;;;;;;;;4925865;29;20678;-69
2023/01/12 06:42:27;;;;;;;3.45;0.90;;;;;;;;;;4925573;29;20246;-69
2023/01/12 06:44:53;;;;;;;2.08;0.75;;;;;;;;;;4925454;29;20227;-70
2023/01/12 06:47:18;;;;;;;3.70;1.20;;;;;;;;;;4925615;29;20239;-69
2023/01/12 06:49:43;;;;;;;4.47;1.15;;;;;;;;;;4924684;29;20264;-70
2023/01/12 06:52:09;;;;;;;4.45;1.20;;;;;;;;;;4917865;29;20254;-69
2023/01/12 06:54:34;;;;;;;1.48;0.60;;;;;;;;;;4917650;29;20274;-69
2023/01/12 06:56:59;;;;;;;3.08;0.80;;;;;;;;;;4937465;28;20206;-69
2023/01/12 06:59:24;;;;;;;3.97;0.93;;;;;;;;;;4943368;28;20210;-69
2023/01/12 07:01:50;;;;;;;3.60;1.00;;;;;;;;;;4940872;28;20237;-69
2023/01/12 07:04:15;;;;;;;3.58;1.05;;;;;;;;;;4925042;29;20699;-70
2023/01/12 07:06:40;;;;;;;4.18;0.90;;;;;;;;;;4925179;29;20241;-70
2023/01/12 07:09:06;;;;;;;3.05;1.05;;;;;;;;;;4925021;29;20238;-69
2023/01/12 07:11:31;;;;;;;4.38;0.90;;;;;;;;;;4925888;29;20305;-71
2023/01/12 07:13:56;;;;;;;2.65;0.80;;;;;;;;;;4918595;28;20565;-70
2023/01/12 07:16:21;;;;;;;2.80;0.73;;;;;;;;;;4913617;29;20221;-70
2023/01/12 07:18:47;;;;;;;3.10;0.80;;;;;;;;;;4916980;29;20244;-65
2023/01/12 07:21:13;;;;;;;2.60;0.80;;;;;;;;;;4923886;28;20253;-65
2023/01/12 07:23:42;;;;;;;2.92;0.88;;;;;;;;;;4925376;29;20227;-67
2023/01/12 07:26:07;;;;;;;3.05;0.98;;;;;;;;;;4923324;29;21015;-66
2023/01/12 07:28:33;;;;;;;2.83;0.80;;;;;;;;;;4933353;28;20223;-65
2023/01/12 07:31:00;;;;;;;1.95;0.68;;;;;;;;;;4935023;28;20678;-65
2023/01/12 07:33:25;;;;;;;2.25;0.80;;;;;;;;;;4937987;28;20227;-65
2023/01/12 07:35:50;;;;;;;3.08;1.00;;;;;;;;;;4922077;29;20301;-65
2023/01/12 07:38:16;;;;;;;2.10;0.75;;;;;;;;;;4917841;29;20211;-68
2023/01/12 07:40:41;;;;;;;2.65;0.80;;;;;;;;;;4917421;29;20325;-68
2023/01/12 07:43:07;;;;;;;2.17;0.77;;;;;;;;;;4921399;29;20231;-68
2023/01/12 07:45:32;;;;;;;2.88;0.98;;;;;;;;;;4925256;29;20250;-68
2023/01/12 07:47:57;;;;;;;1.80;0.98;;;;;;;;;;4924669;29;20670;-68
2023/01/12 07:50:23;;;;;;;2.00;0.88;;;;;;;;;;4924793;29;20269;-68
2023/01/12 07:52:49;;;;;;;1.85;0.80;;;;;;;;;;4925467;29;20219;-69
2023/01/12 07:55:17;;;;;;;1.77;0.90;;;;;;;;;;4924335;29;20219;-68
2023/01/12 07:57:43;;;;;;;1.98;0.70;;;;;;;;;;4922753;29;20219;-65
2023/01/12 08:00:09;;;;;;;2.38;1.00;;;;;;;;;;4917990;29;20525;-65
2023/01/12 08:02:34;;;;;;;3.15;1.00;;;;;;;;;;4947925;28;20222;-65
2023/01/12 08:04:59;;;;;;;3.00;0.95;;;;;;;;;;4952585;28;20211;-65
2023/01/12 08:07:25;;;;;;;1.90;0.90;;;;;;;;;;4951688;28;20419;-68
2023/01/12 08:09:51;;;;;;;2.33;1.05;;;;;;;;;;4952365;28;20493;-69
2023/01/12 08:12:16;;;;;;;1.65;0.88;;;;;;;;;;4952436;28;20242;-68
2023/01/12 08:14:41;;;;;;;2.35;0.90;;;;;;;;;;4953779;28;20246;-68
2023/01/12 08:17:08;;;;;;;1.65;0.70;;;;;;;;;;4950499;28;20670;-67
2023/01/12 08:19:37;;;;;;;1.98;0.80;;;;;;;;;;4956596;28;20242;-68
2023/01/12 08:22:03;;;;;;;1.67;0.93;;;;;;;;;;4955198;28;20577;-67
2023/01/12 08:24:31;;;;;;;2.25;0.90;;;;;;;;;;4956086;28;20666;-67
2023/01/12 08:26:56;;;;;;;3.10;0.95;;;;;;;;;;4955193;28;20233;-68
2023/01/12 08:29:30;;;;;;;2.20;1.00;;;;;;;;;;4955287;28;20215;-68
2023/01/12 08:31:56;;;;;;;3.97;1.30;;;;;;;;;;4953706;28;20689;-68
2023/01/12 08:34:22;;;;;;;2.00;0.90;;;;;;;;;;4955431;28;20242;-67
2023/01/12 08:36:47;;;;;;;1.70;0.98;;;;;;;;;;4955415;28;20740;-67
2023/01/12 08:39:12;;;;;;;1.95;0.90;;;;;;;;;;4955368;28;20210;-68
2023/01/12 08:41:39;;;;;;;2.03;1.00;;;;;;;;;;4955870;28;20261;-67
2023/01/12 08:44:08;;;;;;;2.25;0.90;;;;;;;;;;4954855;28;20341;-67
2023/01/12 08:46:35;;;;;;;2.40;0.93;;;;;;;;;;4938553;29;20230;-67
2023/01/12 08:49:01;;;;;;;1.83;0.95;;;;;;;;;;4955318;28;20217;-66
2023/01/12 08:51:27;;;;;;;1.83;0.95;;;;;;;;;;4955460;28;20211;-66
2023/01/12 08:53:52;;;;;;;1.58;0.80;;;;;;;;;;4955948;28;20251;-67
2023/01/12 08:56:17;;;;;;;2.88;1.30;;;;;;;;;;4938369;28;20682;-68
2023/01/12 08:58:42;;;;;;;2.83;1.20;;;;;;;;;;4955947;28;20214;-69
2023/01/12 09:01:10;;;;;;;1.70;0.90;;;;;;;;;;4955103;28;20214;-67
2023/01/12 09:03:35;;;;;;;1.77;0.93;;;;;;;;;;4955732;28;20215;-68
2023/01/12 09:06:07;;;;;;;2.17;0.90;;;;;;;;;;4954582;28;20211;-67
2023/01/12 09:08:33;;;;;;;1.63;1.00;;;;;;;;;;4955733;28;20215;-66
2023/01/12 09:11:02;;;;;;;1.83;0.82;;;;;;;;;;4956115;28;20211;-66
2023/01/12 09:13:28;;;;;;;2.45;1.05;;;;;;;;;;4938099;29;20639;-65
2023/01/12 09:15:53;;;;;;;6.43;0.80;;;;;;;;;;4955848;28;20309;-64
2023/01/12 09:18:18;;;;;;;2.10;0.88;;;;;;;;;;4954223;28;20221;-68
2023/01/12 09:20:43;;;;;;;1.55;0.85;;;;;;;;;;4955418;28;20222;-66
2023/01/12 09:23:09;;;;;;;1.40;0.70;;;;;;;;;;4955266;28;20289;-67
2023/01/12 09:25:34;;;;;;;3.10;0.75;;;;;;;;;;4954735;28;20218;-66
2023/01/12 09:27:59;;;;;;;2.47;1.00;;;;;;;;;;4955088;28;20305;-67
2023/01/12 09:30:25;;;;;;;1.83;0.85;;;;;;;;;;4954622;28;20210;-66
2023/01/12 09:32:50;;;;;;;2.10;0.90;;;;;;;;;;4954445;28;20234;-66
2023/01/12 09:35:18;;;;;;;1.77;0.88;;;;;;;;;;4954395;28;20701;-67
2023/01/12 09:37:45;;;;;;;3.45;0.90;;;;;;;;;;4955235;28;20227;-67
2023/01/12 09:40:12;;;;;;;1.77;0.95;;;;;;;;;;4951540;28;20310;-67
2023/01/12 09:48:09;;;;;;;1.73;0.90;;;;;;;;;;4935222;29;20218;-67
2023/01/12 09:50:35;;;;;;;0.90;0.70;;;;;;;;;;4940275;28;20211;-67
2023/01/12 09:53:04;;;;;;;1.40;0.70;;;;;;;;;;4952252;28;20237;-67
2023/01/12 09:55:34;;;;;;;1.50;0.88;;;;;;;;;;4918419;29;20679;-67
2023/01/12 09:58:19;;;;;;;1.60;0.80;;;;;;;;;;4936064;29;20211;-67
2023/01/12 10:00:48;;;;;;;1.80;0.82;;;;;;;;;;4934908;29;20274;-67
2023/01/12 10:03:24;;;;;;;1.90;0.80;;;;;;;;;;4959290;28;20210;-67
2023/01/12 10:05:49;;;;;;;0.80;0.80;;;;;;;;;;4953646;28;20309;-67
2023/01/12 10:08:16;;;;;;;2.38;1.02;;;;;;;;;;4954078;28;20301;-68
2023/01/12 10:10:43;;;;;;;2.40;1.10;;;;;;;;;;4937013;29;20207;-68
2023/01/12 10:13:12;;;;;;;1.30;0.70;;;;;;;;;;4936385;28;20306;-69
2023/01/12 10:15:39;;;;;;;1.30;0.77;;;;;;;;;;4954426;28;20238;-67
2023/01/12 10:18:07;;;;;;;1.05;0.80;;;;;;;;;;4953542;28;20301;-68
2023/01/12 10:20:33;;;;;;;0.90;0.70;;;;;;;;;;4954692;28;20677;-68
2023/01/12 10:23:00;;;;;;;0.93;0.80;;;;;;;;;;4936194;29;20246;-68
2023/01/12 10:25:34;;;;;;;1.55;0.80;;;;;;;;;;4935643;29;20218;-68
2023/01/12 10:27:59;;;;;;;0.88;0.77;;;;;;;;;;4937687;29;20636;-67
2023/01/12 10:30:27;;;;;;;0.95;0.70;;;;;;;;;;4936444;29;21246;-67
2023/01/12 10:32:52;;;;;;;1.58;0.98;;;;;;;;;;4954276;28;20628;-67
2023/01/12 10:35:18;;;;;;;0.73;0.60;;;;;;;;;;4954226;28;20226;-67
2023/01/12 10:37:44;;;;;;;0.93;0.70;;;;;;;;;;4953829;28;20211;-68
2023/01/12 10:40:17;;;;;;;1.85;0.77;;;;;;;;;;4953566;28;20273;-68
2023/01/12 10:43:19;;;;;;;1.25;0.70;;;;;;;;;;4934844;29;20686;-67
2023/01/12 10:45:45;;;;;;;1.35;0.90;;;;;;;;;;4922630;29;20246;-67
2023/01/12 10:48:15;;;;;;;9.25;6.10;;;;;;;;;;4917447;29;20245;-68
2023/01/12 10:50:41;;;;;;;7.75;5.70;;;;;;;;;;4937680;29;20211;-68
2023/01/12 10:53:12;;;;;;;0.90;0.65;;;;;;;;;;4953663;28;20218;-67
2023/01/12 10:55:38;;;;;;;1.15;0.47;;;;;;;;;;4954414;28;20219;-68
2023/01/12 10:58:03;;;;;;;1.45;0.93;;;;;;;;;;4953459;28;20211;-68
2023/01/12 11:00:29;;;;;;;1.95;1.30;;;;;;;;;;4954043;28;20225;-67
2023/01/12 11:02:54;;;;;;;1.58;1.23;;;;;;;;;;4936720;29;20211;-67
2023/01/12 11:05:33;;;;;;;1.70;0.88;;;;;;;;;;4953203;28;20761;-67
2023/01/12 11:07:59;;;;;;;1.38;0.55;;;;;;;;;;4935220;29;20211;-68
2023/01/12 11:10:31;;;;;;;0.80;0.80;;;;;;;;;;4934436;29;20223;-67
2023/01/12 11:12:57;;;;;;;1.48;0.70;;;;;;;;;;4943532;28;20704;-67
2023/01/12 11:15:23;;;;;;;0.75;0.55;;;;;;;;;;4953653;29;20221;-67
2023/01/12 11:18:02;;;;;;;1.20;0.80;;;;;;;;;;4953700;29;20278;-67
2023/01/12 11:20:29;;;;;;;3.00;1.00;;;;;;;;;;4953419;29;20285;-67
2023/01/12 11:22:55;;;;;;;1.80;1.00;;;;;;;;;;4954036;29;20305;-68
2023/01/12 11:25:22;;;;;;;1.00;0.57;;;;;;;;;;4936020;29;20862;-67
2023/01/12 11:27:57;;;;;;;1.92;1.17;;;;;;;;;;4936645;29;20341;-67
2023/01/12 11:30:26;;;;;;;0.88;0.63;;;;;;;;;;4936482;29;20218;-67
2023/01/12 11:32:53;;;;;;;0.77;0.50;;;;;;;;;;4952858;29;20269;-67
2023/01/12 11:35:23;;;;;;;1.40;0.77;;;;;;;;;;4944432;28;20328;-67
2023/01/12 11:37:48;;;;;;;1.05;0.90;;;;;;;;;;4972285;28;20214;-67
2023/01/12 11:40:17;;;;;;;1.02;0.85;;;;;;;;;;4972246;28;20221;-67
2023/01/12 11:45:38;;;;;;;1.10;0.90;;;;;;;;;;4952702;28;20245;-67
2023/01/12 11:48:06;;;;;;;1.52;0.80;;;;;;;;;;4951415;28;20218;-67
2023/01/12 11:50:32;;;;;;;0.88;0.50;;;;;;;;;;4954295;28;20210;-67
2023/01/12 11:52:57;;;;;;;0.60;0.60;;;;;;;;;;4956917;28;20226;-67
2023/01/12 11:55:31;;;;;;;0.77;0.60;;;;;;;;;;4956590;28;20206;-67
2023/01/12 11:57:59;;;;;;;1.02;0.60;;;;;;;;;;4956315;28;20757;-67
2023/01/12 12:00:36;;;;;;;1.70;0.77;;;;;;;;;;4955259;28;20214;-67
2023/01/12 12:03:05;;;;;;;0.60;0.60;;;;;;;;;;4956838;28;20669;-67
2023/01/12 12:05:31;;;;;;;0.68;0.52;;;;;;;;;;4956941;28;20561;-67
2023/01/12 12:07:58;;;;;;;0.60;0.60;;;;;;;;;;4976320;28;20221;-67
2023/01/12 12:10:26;;;;;;;1.10;0.60;;;;;;;;;;4974815;28;20214;-67
2023/01/12 12:13:03;;;;;;;1.80;0.60;;;;;;;;;;4970139;28;20210;-68
2023/01/12 12:15:34;;;;;;;0.95;0.68;;;;;;;;;;4955362;28;20222;-67
2023/01/12 12:18:17;;;;;;;1.13;0.60;;;;;;;;;;4955787;28;20222;-67
2023/01/12 12:21:00;;;;;;;1.33;0.60;;;;;;;;;;4956593;28;20218;-67
2023/01/12 12:23:29;;;;;;;1.20;1.00;;;;;;;;;;4954737;28;20233;-68
2023/01/12 12:25:58;;;;;;;1.20;0.80;;;;;;;;;;4956959;28;20234;-67
2023/01/12 12:28:28;;;;;;;1.73;1.25;;;;;;;;;;4938668;28;20246;-68
2023/01/12 12:30:58;;;;;;;1.00;0.60;;;;;;;;;;4955510;28;20215;-67
2023/01/12 12:33:27;;;;;;;2.00;0.80;;;;;;;;;;4956411;28;20210;-67
2023/01/12 12:36:11;;;;;;;1.02;0.60;;;;;;;;;;4954940;28;20805;-67
2023/01/12 12:38:42;;;;;;;0.80;0.50;;;;;;;;;;4956371;28;20221;-67
2023/01/12 12:46:46;;;;;;;0.80;0.60;;;;;;;;;;4975775;28;20280;-67
2023/01/12 12:49:14;;;;;;;2.45;0.70;;;;;;;;;;4975614;28;20221;-67
2023/01/12 12:51:39;;;;;;;0.60;0.60;;;;;;;;;;4963121;28;20218;-67
2023/01/12 12:54:05;;;;;;;1.00;0.60;;;;;;;;;;4956158;28;20603;-67
2023/01/12 12:56:32;;;;;;;0.68;0.60;;;;;;;;;;4954713;28;20689;-67
2023/01/12 12:58:58;;;;;;;0.70;0.50;;;;;;;;;;4954948;28;20217;-68
2023/01/12 13:01:23;;;;;;;0.40;0.40;;;;;;;;;;4955967;28;20291;-67
2023/01/12 13:03:49;;;;;;;0.70;0.57;;;;;;;;;;4955369;28;20297;-67
2023/01/12 13:06:18;;;;;;;0.60;0.50;;;;;;;;;;4962323;28;20301;-67
2023/01/12 13:08:44;;;;;;;1.10;0.70;;;;;;;;;;4974549;28;20237;-67
2023/01/12 13:11:09;;;;;;;0.73;0.73;;;;;;;;;;4973309;28;20581;-67
2023/01/12 13:13:35;;;;;;;0.80;0.57;;;;;;;;;;4964800;28;20215;-67
2023/01/12 13:16:21;;;;;;;0.60;0.60;;;;;;;;;;4955725;28;20580;-67
2023/01/12 13:18:48;;;;;;;0.55;0.50;;;;;;;;;;4955598;28;20269;-67
2023/01/12 13:21:29;;;;;;;0.88;0.50;;;;;;;;;;4955310;28;20223;-67
2023/01/12 13:24:20;;;;;;;0.52;0.45;;;;;;;;;;4956059;28;20223;-67
2023/01/12 13:26:51;;;;;;;0.50;0.50;;;;;;;;;;4954920;28;20293;-67
2023/01/12 13:29:22;;;;;;;2.65;0.70;;;;;;;;;;4955352;28;20210;-67
2023/01/12 13:31:47;;;;;;;0.80;0.70;;;;;;;;;;4955410;28;20219;-67
2023/01/12 13:34:32;;;;;;;1.08;0.70;;;;;;;;;;4955297;28;20269;-67
2023/01/12 13:37:15;;;;;;;1.13;0.63;;;;;;;;;;4974099;28;20248;-67
2023/01/12 13:39:42;;;;;;;0.98;0.80;;;;;;;;;;4974159;28;20225;-67
2023/01/12 13:44:55;;;;;;;1.40;0.60;;;;;;;;;;4974742;28;20712;-67
2023/01/12 13:47:23;;;;;;;1.25;0.50;;;;;;;;;;4973348;28;20222;-67
2023/01/12 13:49:50;;;;;;;2.00;0.55;;;;;;;;;;4957396;28;20673;-67
2023/01/12 13:52:29;;;;;;;0.77;0.43;;;;;;;;;;4941488;28;20217;-67
2023/01/12 13:54:54;;;;;;;1.90;0.50;;;;;;;;;;4954637;28;20210;-67
2023/01/12 13:57:21;;;;;;;0.60;0.40;;;;;;;;;;4955021;28;20396;-67
2023/01/12 14:00:03;;;;;;;1.05;0.40;;;;;;;;;;4954610;28;20232;-67
2023/01/12 14:02:29;;;;;;;1.67;0.60;;;;;;;;;;4954661;28;20737;-67
2023/01/12 14:04:59;;;;;;;0.70;0.50;;;;;;;;;;4955177;28;20237;-67
2023/01/12 14:07:35;;;;;;;1.65;0.60;;;;;;;;;;4952713;28;20249;-67
2023/01/12 14:10:19;;;;;;;1.17;0.52;;;;;;;;;;4956363;28;20224;-67
2023/01/12 14:12:48;;;;;;;0.65;0.50;;;;;;;;;;4974059;28;20209;-67
2023/01/12 14:18:04;;;;;;;1.30;0.60;;;;;;;;;;4959413;28;20352;-67
2023/01/12 14:20:30;;;;;;;0.40;0.40;;;;;;;;;;4974075;28;20297;-67
2023/01/12 14:23:10;;;;;;;1.70;0.40;;;;;;;;;;4973193;28;20209;-67
2023/01/12 14:25:35;;;;;;;0.68;0.40;;;;;;;;;;4956387;28;20221;-67
2023/01/12 14:28:00;;;;;;;1.20;0.50;;;;;;;;;;4973120;28;20221;-67
2023/01/12 14:30:26;;;;;;;0.68;0.30;;;;;;;;;;4973743;28;20218;-67
2023/01/12 14:32:51;;;;;;;0.30;0.30;;;;;;;;;;4973789;28;20549;-66
2023/01/12 14:35:18;;;;;;;0.70;0.32;;;;;;;;;;4955398;28;20233;-66
2023/01/12 14:37:47;;;;;;;1.85;0.30;;;;;;;;;;4952423;28;20213;-66
2023/01/12 14:40:20;;;;;;;0.40;0.40;;;;;;;;;;4973457;28;20252;-66
2023/01/12 14:48:23;;;;;;;0.30;0.30;;;;;;;;;;4973288;28;20229;-68
2023/01/12 14:50:59;;;;;;;0.52;0.20;;;;;;;;;;4955573;28;20209;-67
2023/01/12 14:53:28;;;;;;;0.75;0.40;;;;;;;;;;4955501;28;20268;-66
2023/01/12 14:55:53;;;;;;;1.45;0.75;;;;;;;;;;4954259;28;20673;-67
2023/01/12 14:58:19;;;;;;;0.98;0.73;;;;;;;;;;4954129;28;20218;-67
2023/01/12 15:00:44;;;;;;;0.43;0.43;;;;;;;;;;4957861;28;20440;-66
2023/01/12 15:03:19;;;;;;;0.50;0.30;;;;;;;;;;4958462;28;20222;-67
2023/01/12 15:05:50;;;;;;;0.40;0.40;;;;;;;;;;4960782;28;20226;-67
2023/01/12 15:08:25;;;;;;;0.60;0.30;;;;;;;;;;4948289;28;20250;-66
2023/01/12 15:10:58;;;;;;;0.30;0.30;;;;;;;;;;4948073;28;20265;-69
2023/01/12 15:13:25;;;;;;;0.95;0.40;;;;;;;;;;4948436;28;20674;-69
2023/01/12 15:26:51;;;;;;;0.30;0.30;;;;;;;;;;4962261;28;20465;-69
2023/01/12 15:29:16;;;;;;;0.68;0.40;;;;;;;;;;4969684;28;20583;-71
2023/01/12 15:31:41;;;;;;;0.95;0.38;;;;;;;;;;4969589;28;20933;-69
2023/01/12 15:34:08;;;;;;;1.00;0.30;;;;;;;;;;4970184;28;20220;-69
2023/01/12 15:36:33;;;;;;;1.20;0.60;;;;;;;;;;4965931;28;20673;-70
2023/01/12 15:38:59;;;;;;;1.05;0.43;;;;;;;;;;4951046;28;20349;-70
2023/01/12 15:44:10;;;;;;;0.40;0.30;;;;;;;;;;4957075;28;20756;-72